Time;durP1;ratioP1;P1;durP2;ratioP2;P2;SDS_P1;SDS_P2;PMS_P1;PMS_P2;Temp;Humidity;BMP_temperature;BMP_pressure;BME280_temperature;BME280_humidity;BME280_pressure;Samples;Min_cycle;Max_cycle;Signal;HPM_P1;HPM_P2
2023/10/20 00:02:20;;;;;;;8.53;5.43;;;;;;;;;;5134869;27;20229;-85
2023/10/20 00:04:48;;;;;;;8.57;5.40;;;;;;;;;;5134740;27;20228;-86
2023/10/20 00:07:18;;;;;;;7.95;5.45;;;;;;;;;;5136390;27;20258;-85
2023/10/20 00:09:45;;;;;;;7.93;5.25;;;;;;;;;;5135696;27;20216;-85
2023/10/20 00:12:12;;;;;;;11.67;5.73;;;;;;;;;;5135381;27;20260;-86
2023/10/20 00:14:39;;;;;;;8.30;5.30;;;;;;;;;;5135682;27;20205;-86
2023/10/20 00:17:07;;;;;;;8.10;5.22;;;;;;;;;;5135117;27;20197;-85
2023/10/20 00:19:35;;;;;;;9.70;5.47;;;;;;;;;;5134397;27;20254;-85
2023/10/20 00:22:03;;;;;;;7.30;5.20;;;;;;;;;;5134402;27;20714;-84
2023/10/20 00:24:30;;;;;;;7.50;5.10;;;;;;;;;;5134839;27;20232;-85
2023/10/20 00:26:58;;;;;;;9.33;5.60;;;;;;;;;;5135094;27;20205;-85
2023/10/20 00:29:25;;;;;;;7.53;4.97;;;;;;;;;;5135050;27;20257;-86
2023/10/20 00:31:53;;;;;;;6.87;4.90;;;;;;;;;;5135049;27;20253;-86
2023/10/20 00:34:20;;;;;;;9.40;4.63;;;;;;;;;;5134187;27;20739;-85
2023/10/20 00:36:48;;;;;;;7.57;4.93;;;;;;;;;;5135244;27;20197;-86
2023/10/20 00:39:16;;;;;;;7.13;4.43;;;;;;;;;;5135193;27;20750;-86
2023/10/20 00:41:43;;;;;;;10.50;4.70;;;;;;;;;;5134958;27;20617;-86
2023/10/20 00:44:10;;;;;;;10.30;5.27;;;;;;;;;;5135169;27;20259;-86
2023/10/20 00:46:43;;;;;;;11.83;5.07;;;;;;;;;;5134558;27;20245;-85
2023/10/20 00:49:10;;;;;;;7.67;5.00;;;;;;;;;;5134584;27;20235;-86
2023/10/20 00:51:38;;;;;;;8.40;4.87;;;;;;;;;;5134676;27;20336;-86
2023/10/20 00:54:08;;;;;;;7.53;5.00;;;;;;;;;;5133972;27;20200;-85
2023/10/20 00:56:35;;;;;;;9.80;5.17;;;;;;;;;;5134385;27;20201;-85
2023/10/20 00:59:02;;;;;;;8.27;4.47;;;;;;;;;;5134458;27;20265;-86
2023/10/20 01:01:29;;;;;;;8.80;4.93;;;;;;;;;;5134480;27;20193;-87
2023/10/20 01:03:57;;;;;;;7.57;4.83;;;;;;;;;;5134181;27;20232;-86
2023/10/20 01:06:25;;;;;;;9.27;4.87;;;;;;;;;;5134367;27;20197;-86
2023/10/20 01:08:56;;;;;;;9.20;4.70;;;;;;;;;;5134485;27;20204;-86
2023/10/20 01:11:25;;;;;;;8.60;4.80;;;;;;;;;;5134550;27;20236;-86
2023/10/20 01:13:52;;;;;;;10.97;4.67;;;;;;;;;;5134470;27;20784;-86
2023/10/20 01:16:20;;;;;;;6.77;4.70;;;;;;;;;;5134113;27;20250;-87
2023/10/20 01:18:47;;;;;;;8.13;4.50;;;;;;;;;;5133906;27;20197;-86
2023/10/20 01:21:14;;;;;;;6.87;4.10;;;;;;;;;;5134628;27;20275;-85
2023/10/20 01:23:41;;;;;;;5.83;4.30;;;;;;;;;;5134080;27;20704;-86
2023/10/20 01:26:10;;;;;;;9.03;4.03;;;;;;;;;;5134343;27;20205;-86
2023/10/20 01:28:37;;;;;;;8.93;4.40;;;;;;;;;;5134334;27;20224;-86
2023/10/20 01:31:05;;;;;;;10.27;4.60;;;;;;;;;;5133964;27;20239;-85
2023/10/20 01:33:32;;;;;;;9.80;4.30;;;;;;;;;;5133257;27;20651;-85
2023/10/20 01:35:59;;;;;;;7.10;4.13;;;;;;;;;;5127425;27;20197;-86
2023/10/20 01:38:26;;;;;;;8.90;4.10;;;;;;;;;;5112970;28;20705;-86
2023/10/20 01:40:54;;;;;;;6.50;3.67;;;;;;;;;;5113129;28;20692;-84
2023/10/20 01:43:22;;;;;;;6.30;3.60;;;;;;;;;;5113079;28;21073;-86
2023/10/20 01:45:50;;;;;;;7.83;3.60;;;;;;;;;;5113250;28;20201;-86
2023/10/20 01:48:17;;;;;;;6.03;3.60;;;;;;;;;;5113090;28;20228;-86
2023/10/20 01:50:45;;;;;;;6.27;3.53;;;;;;;;;;5112911;28;20213;-85
2023/10/20 01:53:13;;;;;;;7.73;3.87;;;;;;;;;;5113140;28;20712;-85
2023/10/20 01:55:40;;;;;;;7.00;3.80;;;;;;;;;;5112750;28;20233;-86
2023/10/20 01:58:08;;;;;;;13.47;3.60;;;;;;;;;;5113367;28;20201;-86
2023/10/20 02:00:38;;;;;;;12.00;4.53;;;;;;;;;;5113119;28;20200;-86
2023/10/20 02:03:06;;;;;;;8.40;4.50;;;;;;;;;;5112838;28;20198;-86
2023/10/20 02:05:33;;;;;;;9.13;4.70;;;;;;;;;;5112851;28;20230;-86
2023/10/20 02:08:00;;;;;;;9.70;4.73;;;;;;;;;;5112559;28;20197;-86
2023/10/20 02:10:27;;;;;;;11.00;4.70;;;;;;;;;;5112830;28;20262;-85
2023/10/20 02:12:55;;;;;;;12.87;4.97;;;;;;;;;;5112761;28;20225;-86
2023/10/20 02:15:22;;;;;;;14.53;5.47;;;;;;;;;;5112310;28;20250;-86
2023/10/20 02:17:51;;;;;;;11.00;5.53;;;;;;;;;;5112985;28;20198;-84
2023/10/20 02:20:21;;;;;;;10.27;5.77;;;;;;;;;;5133057;27;20201;-85
2023/10/20 02:22:50;;;;;;;8.60;5.27;;;;;;;;;;5132608;27;20188;-85
2023/10/20 02:25:18;;;;;;;10.50;5.47;;;;;;;;;;5132737;27;20228;-86
2023/10/20 02:27:45;;;;;;;16.13;6.20;;;;;;;;;;5133046;27;20607;-85
2023/10/20 02:30:13;;;;;;;14.80;6.10;;;;;;;;;;5132469;27;20622;-85
2023/10/20 02:32:41;;;;;;;9.30;5.50;;;;;;;;;;5133218;27;20225;-85
2023/10/20 02:35:11;;;;;;;13.57;5.97;;;;;;;;;;5133606;27;20229;-86
2023/10/20 02:37:38;;;;;;;13.60;6.17;;;;;;;;;;5133321;27;20228;-87
2023/10/20 02:40:06;;;;;;;14.13;6.10;;;;;;;;;;5133093;27;20197;-86
2023/10/20 02:42:33;;;;;;;12.70;6.50;;;;;;;;;;5133055;27;20266;-84
2023/10/20 02:45:01;;;;;;;14.80;6.30;;;;;;;;;;5132515;27;20297;-85
2023/10/20 02:47:28;;;;;;;13.83;6.60;;;;;;;;;;5136839;27;20619;-86
2023/10/20 02:49:56;;;;;;;14.37;6.10;;;;;;;;;;5136788;27;20285;-86
2023/10/20 02:52:24;;;;;;;15.20;6.37;;;;;;;;;;5137056;27;20207;-86
2023/10/20 02:54:54;;;;;;;13.43;6.07;;;;;;;;;;5137280;27;20308;-87
2023/10/20 02:57:21;;;;;;;15.10;6.17;;;;;;;;;;5137280;27;20201;-86
2023/10/20 02:59:49;;;;;;;14.57;6.33;;;;;;;;;;5136996;27;20212;-87
2023/10/20 03:02:17;;;;;;;18.90;6.77;;;;;;;;;;5137093;27;20217;-86
2023/10/20 03:04:44;;;;;;;21.10;6.47;;;;;;;;;;5137268;27;20254;-85
2023/10/20 03:07:11;;;;;;;17.20;6.60;;;;;;;;;;5137246;27;20205;-85
2023/10/20 03:09:40;;;;;;;18.83;6.70;;;;;;;;;;5137220;27;20197;-86
2023/10/20 03:12:08;;;;;;;13.43;6.13;;;;;;;;;;5136090;27;20649;-86
2023/10/20 03:14:36;;;;;;;17.57;6.20;;;;;;;;;;5136420;27;20575;-85
2023/10/20 03:17:03;;;;;;;14.73;6.23;;;;;;;;;;5136598;27;20197;-86
2023/10/20 03:19:32;;;;;;;20.07;6.30;;;;;;;;;;5122351;27;20206;-85
2023/10/20 03:22:00;;;;;;;17.27;6.57;;;;;;;;;;5115887;28;20202;-86
2023/10/20 03:24:27;;;;;;;21.53;6.47;;;;;;;;;;5115835;28;20352;-85
2023/10/20 03:26:56;;;;;;;17.83;6.40;;;;;;;;;;5115283;28;20658;-85
2023/10/20 03:29:23;;;;;;;16.10;6.33;;;;;;;;;;5115537;28;20197;-85
2023/10/20 03:31:50;;;;;;;18.47;7.00;;;;;;;;;;5115927;28;20206;-85
2023/10/20 03:34:17;;;;;;;22.60;7.27;;;;;;;;;;5115844;28;20239;-86
2023/10/20 03:36:44;;;;;;;19.53;6.83;;;;;;;;;;5115454;28;20258;-86
2023/10/20 03:39:20;;;;;;;18.13;6.68;;;;;;;;;;5115708;28;20670;-85
2023/10/20 03:41:48;;;;;;;16.50;6.20;;;;;;;;;;5115530;28;20208;-86
2023/10/20 03:44:17;;;;;;;19.80;7.67;;;;;;;;;;5115197;28;20250;-85
2023/10/20 03:46:48;;;;;;;21.33;7.07;;;;;;;;;;5115502;28;20251;-84
2023/10/20 03:49:16;;;;;;;18.67;7.20;;;;;;;;;;5115307;28;20190;-86
2023/10/20 03:51:49;;;;;;;24.70;6.93;;;;;;;;;;5115472;28;20197;-85
2023/10/20 03:54:16;;;;;;;18.63;6.90;;;;;;;;;;5115090;28;20202;-85
2023/10/20 03:56:44;;;;;;;21.87;7.47;;;;;;;;;;5114332;28;20298;-85
2023/10/20 03:59:11;;;;;;;19.13;6.97;;;;;;;;;;5115009;28;20278;-85
2023/10/20 04:01:40;;;;;;;23.70;7.27;;;;;;;;;;5115344;28;20566;-86
2023/10/20 04:04:09;;;;;;;24.23;7.00;;;;;;;;;;5115656;28;20229;-86
2023/10/20 04:06:37;;;;;;;13.33;6.80;;;;;;;;;;5115065;28;20226;-86
2023/10/20 04:09:08;;;;;;;20.67;6.43;;;;;;;;;;5115521;28;20212;-86
2023/10/20 04:11:36;;;;;;;26.50;7.37;;;;;;;;;;5114634;28;20694;-85
2023/10/20 04:14:05;;;;;;;20.17;7.00;;;;;;;;;;5115306;28;20201;-84
2023/10/20 04:16:37;;;;;;;15.87;6.30;;;;;;;;;;5114882;28;20198;-86
2023/10/20 04:19:06;;;;;;;16.97;6.90;;;;;;;;;;5125156;27;20197;-86
2023/10/20 04:21:35;;;;;;;17.80;5.97;;;;;;;;;;5135458;27;20204;-86
2023/10/20 04:24:03;;;;;;;19.07;6.13;;;;;;;;;;5135500;27;20200;-86
2023/10/20 04:26:31;;;;;;;19.23;6.40;;;;;;;;;;5135282;27;20226;-86
2023/10/20 04:29:08;;;;;;;22.20;6.57;;;;;;;;;;5135364;27;20197;-85
2023/10/20 04:43:20;;;;;;;25.50;7.13;;;;;;;;;;5134827;27;20253;-86
2023/10/20 04:51:24;;;;;;;28.03;8.17;;;;;;;;;;5135067;27;20204;-86
2023/10/20 04:53:54;;;;;;;29.27;8.67;;;;;;;;;;5134636;27;20197;-88
2023/10/20 04:56:35;;;;;;;19.40;7.77;;;;;;;;;;5130233;27;20205;-86
2023/10/20 04:59:05;;;;;;;23.20;8.10;;;;;;;;;;5129928;27;20197;-87
2023/10/20 05:01:43;;;;;;;25.87;8.60;;;;;;;;;;5134055;27;20241;-87
2023/10/20 05:04:16;;;;;;;25.00;7.27;;;;;;;;;;5130247;27;20560;-87
2023/10/20 05:06:45;;;;;;;23.07;6.00;;;;;;;;;;5150311;27;21081;-92
2023/10/20 05:09:16;;;;;;;20.00;6.83;;;;;;;;;;5157206;27;20208;-90
2023/10/20 05:11:44;;;;;;;23.63;6.17;;;;;;;;;;5140307;27;20224;-89
2023/10/20 05:14:11;;;;;;;18.10;6.93;;;;;;;;;;5136170;27;20247;-90
2023/10/20 05:16:38;;;;;;;27.40;6.40;;;;;;;;;;5137604;27;20283;-91
2023/10/20 05:19:06;;;;;;;30.90;6.13;;;;;;;;;;5138514;27;20205;-89
2023/10/20 05:21:38;;;;;;;22.03;6.80;;;;;;;;;;5139041;27;20201;-91
2023/10/20 05:24:08;;;;;;;27.03;6.80;;;;;;;;;;5138597;27;20189;-90
2023/10/20 05:26:35;;;;;;;28.43;7.00;;;;;;;;;;5140236;27;20280;-90
2023/10/20 05:29:03;;;;;;;25.70;7.50;;;;;;;;;;5138439;27;20650;-91
2023/10/20 05:31:30;;;;;;;31.70;7.70;;;;;;;;;;5140314;27;20197;-89
2023/10/20 05:33:58;;;;;;;26.13;7.03;;;;;;;;;;5135727;27;20555;-85
2023/10/20 05:36:25;;;;;;;27.13;6.70;;;;;;;;;;5132417;27;20201;-84
2023/10/20 05:38:53;;;;;;;26.37;7.27;;;;;;;;;;5133083;27;20197;-87
2023/10/20 05:41:21;;;;;;;21.67;7.83;;;;;;;;;;5127482;27;20213;-85
2023/10/20 05:43:52;;;;;;;20.47;7.23;;;;;;;;;;5135144;27;20261;-86
2023/10/20 05:46:20;;;;;;;17.60;7.37;;;;;;;;;;5130939;27;20224;-85
2023/10/20 05:48:53;;;;;;;24.63;7.60;;;;;;;;;;5115182;27;20206;-92
2023/10/20 05:51:23;;;;;;;24.43;8.23;;;;;;;;;;5114322;28;20201;-92
2023/10/20 05:53:52;;;;;;;23.33;8.17;;;;;;;;;;5113934;28;20777;-92
2023/10/20 05:56:24;;;;;;;22.27;8.63;;;;;;;;;;5114643;28;20194;-89
2023/10/20 05:58:52;;;;;;;27.17;8.63;;;;;;;;;;5115118;28;20205;-91
2023/10/20 06:01:26;;;;;;;27.47;9.20;;;;;;;;;;5115131;28;20254;-92
2023/10/20 06:03:53;;;;;;;26.73;9.00;;;;;;;;;;5115374;28;20205;-93
2023/10/20 06:06:24;;;;;;;26.43;8.70;;;;;;;;;;5114275;28;20286;-93
2023/10/20 06:08:51;;;;;;;25.53;8.50;;;;;;;;;;5114451;28;20202;-93
2023/10/20 06:11:18;;;;;;;24.90;8.57;;;;;;;;;;5114703;28;20190;-94
2023/10/20 06:13:47;;;;;;;22.77;8.23;;;;;;;;;;5114298;28;20228;-93
2023/10/20 06:16:18;;;;;;;24.30;7.73;;;;;;;;;;5114725;28;20197;-93
2023/10/20 06:18:46;;;;;;;26.03;7.83;;;;;;;;;;5122027;27;20197;-93
2023/10/20 06:21:14;;;;;;;20.53;7.83;;;;;;;;;;5134474;27;20201;-93
2023/10/20 06:23:41;;;;;;;21.63;8.43;;;;;;;;;;5134451;27;21052;-93
2023/10/20 06:26:09;;;;;;;19.50;7.23;;;;;;;;;;5135278;27;20213;-93
2023/10/20 06:28:36;;;;;;;24.90;7.90;;;;;;;;;;5134775;28;20649;-94
2023/10/20 06:31:27;;;;;;;17.83;7.57;;;;;;;;;;5134444;27;20246;-93
2023/10/20 06:33:59;;;;;;;17.20;7.67;;;;;;;;;;5134215;28;20711;-93
2023/10/20 06:36:27;;;;;;;19.80;7.17;;;;;;;;;;5133539;28;20205;-93
2023/10/20 06:38:54;;;;;;;22.63;8.10;;;;;;;;;;5135104;28;20218;-94
2023/10/20 06:41:25;;;;;;;21.47;7.47;;;;;;;;;;5134652;28;20221;-93
2023/10/20 06:43:55;;;;;;;16.63;7.57;;;;;;;;;;5134659;28;20266;-93
2023/10/20 06:46:23;;;;;;;20.70;8.43;;;;;;;;;;5134535;28;20232;-93
2023/10/20 06:48:51;;;;;;;26.93;8.13;;;;;;;;;;5135318;27;20660;-93
2023/10/20 06:51:18;;;;;;;20.93;7.60;;;;;;;;;;5134736;27;20216;-93
2023/10/20 06:53:45;;;;;;;22.33;7.17;;;;;;;;;;5134769;28;20220;-92
2023/10/20 06:56:12;;;;;;;20.97;7.67;;;;;;;;;;5134923;27;20238;-92
2023/10/20 06:58:40;;;;;;;23.23;8.33;;;;;;;;;;5135378;27;20200;-93
2023/10/20 07:01:07;;;;;;;19.03;7.20;;;;;;;;;;5134258;27;20223;-92
2023/10/20 07:03:36;;;;;;;22.80;7.97;;;;;;;;;;5134481;28;20216;-93
2023/10/20 07:06:07;;;;;;;21.67;7.50;;;;;;;;;;5134084;27;20332;-93
2023/10/20 07:08:34;;;;;;;18.97;7.40;;;;;;;;;;5135005;28;20200;-93
2023/10/20 07:11:03;;;;;;;21.00;6.20;;;;;;;;;;5134485;28;20245;-92
2023/10/20 07:13:32;;;;;;;16.73;6.50;;;;;;;;;;5134890;27;20670;-94
2023/10/20 07:16:00;;;;;;;16.57;6.40;;;;;;;;;;5134356;28;20623;-92
2023/10/20 07:18:28;;;;;;;16.23;6.07;;;;;;;;;;5134807;27;20226;-94
2023/10/20 07:20:56;;;;;;;22.07;6.57;;;;;;;;;;5134954;27;20201;-93
2023/10/20 07:23:24;;;;;;;20.43;6.57;;;;;;;;;;5135238;27;20194;-93
2023/10/20 07:25:51;;;;;;;16.93;5.93;;;;;;;;;;5134376;27;20221;-93
2023/10/20 07:28:18;;;;;;;23.80;6.10;;;;;;;;;;5134972;27;20674;-93
2023/10/20 07:30:45;;;;;;;15.17;5.87;;;;;;;;;;5134825;27;20197;-93
2023/10/20 07:33:12;;;;;;;20.57;6.07;;;;;;;;;;5136650;27;20197;-93
2023/10/20 07:35:42;;;;;;;16.13;5.97;;;;;;;;;;5138169;27;20208;-93
2023/10/20 07:38:12;;;;;;;14.50;5.63;;;;;;;;;;5142667;27;20257;-94
2023/10/20 07:40:40;;;;;;;17.53;5.50;;;;;;;;;;5144684;27;20203;-94
2023/10/20 07:43:07;;;;;;;16.63;5.63;;;;;;;;;;5144386;27;20197;-93
2023/10/20 07:45:39;;;;;;;16.03;5.60;;;;;;;;;;5143355;27;20255;-92
2023/10/20 07:48:07;;;;;;;18.93;5.33;;;;;;;;;;5143510;27;20197;-92
2023/10/20 07:50:34;;;;;;;19.23;5.63;;;;;;;;;;5140316;27;20197;-92
2023/10/20 07:53:02;;;;;;;16.70;5.30;;;;;;;;;;5137783;27;20205;-94
2023/10/20 07:55:30;;;;;;;18.80;5.60;;;;;;;;;;5137898;27;20288;-93
2023/10/20 07:57:58;;;;;;;19.27;6.33;;;;;;;;;;5138247;27;20219;-94
2023/10/20 08:00:25;;;;;;;17.60;6.47;;;;;;;;;;5137564;27;20196;-93
2023/10/20 08:02:53;;;;;;;16.13;6.07;;;;;;;;;;5138501;27;20250;-93
2023/10/20 08:05:20;;;;;;;16.03;5.90;;;;;;;;;;5137289;27;20213;-93
2023/10/20 08:07:49;;;;;;;18.30;6.50;;;;;;;;;;5137106;27;20190;-93
2023/10/20 08:10:16;;;;;;;14.90;5.43;;;;;;;;;;5137297;27;20204;-94
2023/10/20 08:12:45;;;;;;;16.57;5.70;;;;;;;;;;5137125;27;20285;-93
2023/10/20 08:15:12;;;;;;;15.30;5.87;;;;;;;;;;5137748;27;20197;-93
2023/10/20 08:17:40;;;;;;;12.73;5.90;;;;;;;;;;5136975;27;20284;-93
2023/10/20 08:20:09;;;;;;;12.73;5.80;;;;;;;;;;5137449;27;20581;-93
2023/10/20 08:22:37;;;;;;;13.33;5.50;;;;;;;;;;5137438;27;20231;-93
2023/10/20 08:25:04;;;;;;;12.47;5.30;;;;;;;;;;5137154;27;20201;-93
2023/10/20 08:27:32;;;;;;;10.93;5.03;;;;;;;;;;5137086;27;20237;-93
2023/10/20 08:30:00;;;;;;;12.47;4.70;;;;;;;;;;5137026;27;20202;-94
2023/10/20 08:32:28;;;;;;;15.93;4.93;;;;;;;;;;5136861;27;20238;-93
2023/10/20 08:34:55;;;;;;;12.47;5.23;;;;;;;;;;5137178;27;20249;-93
2023/10/20 08:37:22;;;;;;;17.17;5.07;;;;;;;;;;5137271;27;20280;-94
2023/10/20 08:39:50;;;;;;;10.43;4.73;;;;;;;;;;5137107;27;20246;-93
2023/10/20 08:42:17;;;;;;;9.63;5.28;;;;;;;;;;5136848;27;20254;-93
2023/10/20 08:44:45;;;;;;;18.53;6.63;;;;;;;;;;5136483;27;20217;-94
2023/10/20 08:47:14;;;;;;;11.20;5.70;;;;;;;;;;5135988;27;20320;-93
2023/10/20 08:49:42;;;;;;;10.75;5.28;;;;;;;;;;5136472;27;20714;-91
2023/10/20 08:52:10;;;;;;;12.60;4.97;;;;;;;;;;5136694;27;20200;-91
2023/10/20 08:54:37;;;;;;;11.73;4.50;;;;;;;;;;5136603;27;20262;-91
2023/10/20 08:57:05;;;;;;;10.32;4.28;;;;;;;;;;5136324;27;20209;-91
2023/10/20 08:59:32;;;;;;;9.80;4.03;;;;;;;;;;5136435;27;20193;-91
2023/10/20 09:01:59;;;;;;;12.88;4.22;;;;;;;;;;5136355;27;20276;-91
2023/10/20 09:04:29;;;;;;;11.73;4.20;;;;;;;;;;5136394;27;20568;-91
2023/10/20 09:06:56;;;;;;;7.80;3.80;;;;;;;;;;5135932;27;20220;-92
2023/10/20 09:09:24;;;;;;;9.75;3.25;;;;;;;;;;5136452;27;20197;-92
2023/10/20 09:11:51;;;;;;;10.65;3.60;;;;;;;;;;5136834;27;20233;-90
2023/10/20 09:14:18;;;;;;;13.48;3.70;;;;;;;;;;5136051;27;20618;-91
2023/10/20 09:16:46;;;;;;;7.68;3.30;;;;;;;;;;5135699;27;20205;-91
2023/10/20 09:19:14;;;;;;;9.32;3.05;;;;;;;;;;5136152;27;20211;-92
2023/10/20 09:21:47;;;;;;;9.02;3.50;;;;;;;;;;5135926;27;20281;-91
2023/10/20 09:24:19;;;;;;;11.13;3.22;;;;;;;;;;5135823;27;20197;-92
2023/10/20 09:26:46;;;;;;;9.95;3.40;;;;;;;;;;5135274;27;20727;-91
2023/10/20 09:29:15;;;;;;;7.50;3.13;;;;;;;;;;5136160;27;20209;-91
2023/10/20 09:31:42;;;;;;;12.10;3.35;;;;;;;;;;5135092;27;20207;-91
2023/10/20 09:34:09;;;;;;;6.72;3.08;;;;;;;;;;5135894;27;20201;-91
2023/10/20 09:36:37;;;;;;;8.70;3.10;;;;;;;;;;5135449;27;20271;-91
2023/10/20 09:39:10;;;;;;;10.18;3.20;;;;;;;;;;5135686;27;20201;-90
2023/10/20 09:41:44;;;;;;;7.40;2.92;;;;;;;;;;5136350;27;20189;-91
2023/10/20 09:44:15;;;;;;;8.15;2.83;;;;;;;;;;5135983;27;20228;-91
2023/10/20 09:46:47;;;;;;;9.63;3.40;;;;;;;;;;5136175;27;20704;-91
2023/10/20 09:49:16;;;;;;;12.77;3.80;;;;;;;;;;5135667;27;20604;-90
2023/10/20 09:51:46;;;;;;;9.50;3.28;;;;;;;;;;5137787;27;20201;-91
2023/10/20 09:54:16;;;;;;;7.00;2.83;;;;;;;;;;5142892;27;20200;-91
2023/10/20 09:56:44;;;;;;;7.03;3.10;;;;;;;;;;5142703;27;20252;-91
2023/10/20 09:59:12;;;;;;;6.72;2.72;;;;;;;;;;5142794;27;20235;-89
2023/10/20 10:01:40;;;;;;;7.40;2.60;;;;;;;;;;5142368;27;20240;-90
2023/10/20 10:04:09;;;;;;;6.85;3.20;;;;;;;;;;5142537;27;20200;-91
2023/10/20 10:06:37;;;;;;;8.90;3.28;;;;;;;;;;5136584;27;20304;-91
2023/10/20 10:09:05;;;;;;;8.00;3.08;;;;;;;;;;5135591;27;20192;-91
2023/10/20 10:11:42;;;;;;;9.88;2.50;;;;;;;;;;5135804;27;20224;-91
2023/10/20 10:14:19;;;;;;;6.47;2.65;;;;;;;;;;5135556;27;20197;-91
2023/10/20 10:16:51;;;;;;;9.00;2.83;;;;;;;;;;5136182;27;20201;-90
2023/10/20 10:19:19;;;;;;;5.40;2.45;;;;;;;;;;5136278;27;20219;-91
2023/10/20 10:21:49;;;;;;;5.30;2.63;;;;;;;;;;5136269;27;20205;-90
2023/10/20 10:27:06;;;;;;;6.20;2.72;;;;;;;;;;5142522;27;20229;-90
2023/10/20 10:29:50;;;;;;;4.97;2.45;;;;;;;;;;5143825;27;20213;-91
2023/10/20 10:32:21;;;;;;;4.75;2.42;;;;;;;;;;5146751;27;20214;-91
2023/10/20 10:34:51;;;;;;;6.78;2.38;;;;;;;;;;5135792;27;20197;-90
2023/10/20 10:37:28;;;;;;;8.75;2.70;;;;;;;;;;5135756;28;20222;-90
2023/10/20 10:39:55;;;;;;;7.90;2.85;;;;;;;;;;5135360;27;20537;-91
2023/10/20 10:42:27;;;;;;;7.07;2.45;;;;;;;;;;5135822;28;20272;-90
2023/10/20 10:44:54;;;;;;;9.68;2.30;;;;;;;;;;5135343;28;20196;-91
2023/10/20 10:47:22;;;;;;;4.78;2.22;;;;;;;;;;5136292;28;20248;-91
2023/10/20 10:49:52;;;;;;;5.22;1.90;;;;;;;;;;5135254;27;20192;-92
2023/10/20 10:52:19;;;;;;;3.08;1.90;;;;;;;;;;5135427;28;20280;-90
2023/10/20 10:54:46;;;;;;;7.78;1.95;;;;;;;;;;5136005;28;20201;-92
2023/10/20 10:57:14;;;;;;;3.70;2.10;;;;;;;;;;5135536;28;20414;-91
2023/10/20 10:59:44;;;;;;;6.10;2.42;;;;;;;;;;5135341;27;20622;-91
2023/10/20 11:02:11;;;;;;;4.47;1.75;;;;;;;;;;5135989;28;20224;-91
2023/10/20 11:04:39;;;;;;;4.40;2.03;;;;;;;;;;5135880;28;20246;-91
2023/10/20 11:07:06;;;;;;;2.75;1.60;;;;;;;;;;5137738;27;20281;-91
2023/10/20 11:09:34;;;;;;;4.45;1.85;;;;;;;;;;5139567;27;20201;-91
2023/10/20 11:12:01;;;;;;;5.43;2.00;;;;;;;;;;5138652;27;20229;-90
2023/10/20 11:14:28;;;;;;;4.30;1.92;;;;;;;;;;5139344;27;20197;-91
2023/10/20 11:16:57;;;;;;;4.20;2.00;;;;;;;;;;5139468;27;20212;-91
2023/10/20 11:19:25;;;;;;;6.00;1.98;;;;;;;;;;5125890;27;20271;-91
2023/10/20 11:21:52;;;;;;;5.35;2.40;;;;;;;;;;5118517;28;20201;-91
2023/10/20 11:24:28;;;;;;;6.25;2.30;;;;;;;;;;5119292;28;20190;-91
2023/10/20 11:26:56;;;;;;;5.30;2.20;;;;;;;;;;5117634;28;20217;-92
2023/10/20 11:29:23;;;;;;;5.38;2.40;;;;;;;;;;5118256;28;20280;-91
2023/10/20 11:31:51;;;;;;;7.50;2.28;;;;;;;;;;5117936;28;20205;-91
2023/10/20 11:34:20;;;;;;;5.65;2.58;;;;;;;;;;5118712;28;20209;-91
2023/10/20 11:36:47;;;;;;;7.38;3.10;;;;;;;;;;5118010;28;20231;-91
2023/10/20 11:39:16;;;;;;;10.02;4.03;;;;;;;;;;5118273;28;20228;-92
2023/10/20 11:41:44;;;;;;;8.82;4.72;;;;;;;;;;5118180;28;20662;-91
2023/10/20 11:44:11;;;;;;;6.72;4.15;;;;;;;;;;5117782;28;20322;-92
2023/10/20 11:46:39;;;;;;;8.38;4.25;;;;;;;;;;5118298;28;20221;-91
2023/10/20 11:49:06;;;;;;;6.25;3.83;;;;;;;;;;5117690;28;20217;-92
2023/10/20 11:51:35;;;;;;;10.13;3.42;;;;;;;;;;5117630;28;20201;-91
2023/10/20 11:54:06;;;;;;;6.97;3.50;;;;;;;;;;5118113;28;20193;-91
2023/10/20 11:56:40;;;;;;;7.80;3.85;;;;;;;;;;5118244;28;20293;-91
2023/10/20 11:59:25;;;;;;;7.28;3.63;;;;;;;;;;5117935;28;20198;-92
2023/10/20 12:01:52;;;;;;;5.38;3.45;;;;;;;;;;5117702;28;20654;-92
2023/10/20 12:04:20;;;;;;;6.60;3.42;;;;;;;;;;5117920;28;20197;-91
2023/10/20 12:06:49;;;;;;;9.43;3.15;;;;;;;;;;5120513;28;20226;-91
2023/10/20 12:09:19;;;;;;;9.80;3.65;;;;;;;;;;5123466;28;20577;-91
2023/10/20 12:11:47;;;;;;;7.45;3.70;;;;;;;;;;5122642;28;20251;-90
2023/10/20 12:14:15;;;;;;;9.68;3.65;;;;;;;;;;5123329;28;20190;-92
2023/10/20 12:16:42;;;;;;;7.80;3.60;;;;;;;;;;5123691;28;20202;-91
2023/10/20 12:19:09;;;;;;;7.00;3.30;;;;;;;;;;5132256;27;20208;-91
2023/10/20 12:21:37;;;;;;;8.45;3.33;;;;;;;;;;5137754;27;20206;-91
2023/10/20 12:24:06;;;;;;;6.82;3.45;;;;;;;;;;5138087;27;20218;-91
2023/10/20 12:26:33;;;;;;;7.63;3.30;;;;;;;;;;5137522;27;20202;-90
2023/10/20 12:29:01;;;;;;;9.30;3.60;;;;;;;;;;5137618;27;20246;-90
2023/10/20 12:31:29;;;;;;;6.53;3.67;;;;;;;;;;5138049;27;20624;-91
2023/10/20 12:33:56;;;;;;;11.93;4.45;;;;;;;;;;5137372;27;20197;-90
2023/10/20 12:36:24;;;;;;;8.85;3.53;;;;;;;;;;5137486;27;20590;-90
2023/10/20 12:38:51;;;;;;;8.25;3.67;;;;;;;;;;5137091;27;20197;-91
2023/10/20 12:41:20;;;;;;;7.68;3.90;;;;;;;;;;5137426;27;20242;-90
2023/10/20 12:43:49;;;;;;;8.07;3.50;;;;;;;;;;5136888;27;20206;-91
2023/10/20 12:46:17;;;;;;;8.70;4.05;;;;;;;;;;5137153;27;20201;-90
2023/10/20 12:48:46;;;;;;;7.35;3.70;;;;;;;;;;5136894;27;20240;-91
2023/10/20 12:51:13;;;;;;;6.13;3.40;;;;;;;;;;5137685;27;20193;-90
2023/10/20 12:53:41;;;;;;;8.85;3.97;;;;;;;;;;5136478;27;20193;-91
2023/10/20 12:56:09;;;;;;;7.57;3.47;;;;;;;;;;5137185;27;20197;-91
2023/10/20 12:58:38;;;;;;;9.57;3.80;;;;;;;;;;5136843;27;20766;-91
2023/10/20 13:01:06;;;;;;;7.28;3.60;;;;;;;;;;5137272;27;20242;-91
2023/10/20 13:03:34;;;;;;;8.25;3.47;;;;;;;;;;5136602;27;20719;-90
2023/10/20 13:06:01;;;;;;;9.50;3.83;;;;;;;;;;5136869;27;20192;-90
2023/10/20 13:08:29;;;;;;;7.95;3.50;;;;;;;;;;5136478;27;20229;-91
2023/10/20 13:10:57;;;;;;;10.43;3.80;;;;;;;;;;5136870;27;20718;-91
2023/10/20 13:13:24;;;;;;;7.18;3.83;;;;;;;;;;5136218;27;20233;-91
2023/10/20 13:15:53;;;;;;;11.57;4.10;;;;;;;;;;5136764;27;20189;-91
2023/10/20 13:18:21;;;;;;;8.45;3.90;;;;;;;;;;5132578;27;20239;-91
2023/10/20 13:20:50;;;;;;;7.18;3.83;;;;;;;;;;5116056;28;20661;-92
2023/10/20 13:23:17;;;;;;;10.50;4.65;;;;;;;;;;5115703;28;20197;-91
2023/10/20 13:25:45;;;;;;;8.07;4.43;;;;;;;;;;5116734;28;20197;-91
2023/10/20 13:28:12;;;;;;;9.65;4.97;;;;;;;;;;5116115;28;20682;-91
2023/10/20 13:30:39;;;;;;;11.13;5.10;;;;;;;;;;5115198;28;20208;-91
2023/10/20 13:33:10;;;;;;;9.07;5.03;;;;;;;;;;5116797;28;20251;-91
2023/10/20 13:35:40;;;;;;;12.32;5.30;;;;;;;;;;5116376;28;20202;-91
2023/10/20 13:38:08;;;;;;;9.80;5.03;;;;;;;;;;5116000;28;20232;-91
2023/10/20 13:40:51;;;;;;;10.60;4.82;;;;;;;;;;5115803;28;20194;-91
2023/10/20 13:43:43;;;;;;;11.18;5.05;;;;;;;;;;5115756;28;20252;-91
2023/10/20 13:46:11;;;;;;;12.82;4.82;;;;;;;;;;5115556;28;20194;-90
2023/10/20 13:48:40;;;;;;;11.63;4.75;;;;;;;;;;5115832;28;20225;-91
2023/10/20 13:51:08;;;;;;;12.10;4.97;;;;;;;;;;5114996;28;20616;-91
2023/10/20 13:53:36;;;;;;;11.93;5.10;;;;;;;;;;5116001;28;20290;-91
2023/10/20 13:56:05;;;;;;;12.20;4.63;;;;;;;;;;5115668;28;20202;-91
2023/10/20 14:01:18;;;;;;;12.30;4.65;;;;;;;;;;5115149;27;20293;-92
2023/10/20 14:03:52;;;;;;;10.40;5.10;;;;;;;;;;5115987;28;20246;-91
2023/10/20 14:06:25;;;;;;;10.00;5.03;;;;;;;;;;5115261;28;20200;-91
2023/10/20 14:12:05;;;;;;;8.88;4.60;;;;;;;;;;5101407;27;20362;-91
2023/10/20 14:14:56;;;;;;;10.40;4.72;;;;;;;;;;5115588;28;20197;-92
2023/10/20 14:17:26;;;;;;;10.13;5.05;;;;;;;;;;5104578;27;20715;-92
2023/10/20 14:19:55;;;;;;;8.45;4.10;;;;;;;;;;5133247;27;20288;-91
2023/10/20 14:22:23;;;;;;;7.40;3.90;;;;;;;;;;5136073;27;20197;-90
2023/10/20 14:24:50;;;;;;;9.57;3.90;;;;;;;;;;5139579;27;20201;-92
2023/10/20 14:27:17;;;;;;;8.27;3.90;;;;;;;;;;5137802;27;20193;-90
2023/10/20 14:29:45;;;;;;;11.10;3.42;;;;;;;;;;5140014;27;20193;-91
2023/10/20 14:32:13;;;;;;;7.47;3.40;;;;;;;;;;5142153;27;20196;-90
2023/10/20 14:35:11;;;;;;;10.68;3.53;;;;;;;;;;5142065;27;20328;-93
2023/10/20 14:37:49;;;;;;;10.38;3.78;;;;;;;;;;5132803;27;20193;-91
2023/10/20 14:40:16;;;;;;;10.10;3.60;;;;;;;;;;5135815;27;20275;-90
2023/10/20 14:42:44;;;;;;;8.07;3.25;;;;;;;;;;5138998;27;20200;-91
2023/10/20 14:45:11;;;;;;;7.22;3.40;;;;;;;;;;5140363;27;20199;-91
2023/10/20 14:47:38;;;;;;;11.98;3.30;;;;;;;;;;5140700;27;20217;-91
2023/10/20 14:50:06;;;;;;;8.18;3.13;;;;;;;;;;5139753;27;20193;-91
2023/10/20 14:52:33;;;;;;;8.23;3.20;;;;;;;;;;5140165;27;20276;-91
2023/10/20 14:55:12;;;;;;;9.25;3.13;;;;;;;;;;5139766;27;20238;-91
2023/10/20 14:57:50;;;;;;;;;;;;;;;;;;;;;
2023/10/20 15:00:18;;;;;;;7.47;3.03;;;;;;;;;;5139387;27;20188;-91
2023/10/20 15:02:46;;;;;;;8.25;2.90;;;;;;;;;;5139499;27;20407;-89
2023/10/20 15:05:13;;;;;;;5.88;3.10;;;;;;;;;;5138555;27;20684;-88
2023/10/20 15:07:40;;;;;;;10.25;3.50;;;;;;;;;;5138085;27;20227;-88
2023/10/20 15:10:11;;;;;;;9.18;3.10;;;;;;;;;;5138212;27;20201;-89
2023/10/20 15:12:40;;;;;;;10.55;3.10;;;;;;;;;;5138339;27;20310;-89